createdAt,value
2018-09-05T13:22:02.004Z,100282.51
2018-09-05T13:25:04.968Z,100102.38
2018-09-05T13:34:02.671Z,100102.38
2018-09-05T13:45:11.660Z,100102.38
2018-09-05T13:58:34.285Z,100102.38
2018-09-05T14:04:14.541Z,100102.38
2018-09-05T14:07:17.610Z,100075.80
2018-09-05T14:10:20.568Z,100074.52
2018-09-05T14:13:23.577Z,100075.05
2018-09-05T14:16:26.486Z,100071.67
2018-09-05T14:19:29.469Z,100064.01
2018-09-05T14:22:32.658Z,100064.96
2018-09-05T14:25:35.563Z,100069.57
2018-09-05T14:28:38.554Z,100066.77
2018-09-05T14:31:41.475Z,100064.81
2018-09-05T14:34:44.362Z,100063.81
2018-09-05T14:37:47.306Z,100060.02
2018-09-05T14:40:50.259Z,100058.22
2018-09-05T14:43:53.217Z,100054.13
2018-09-05T14:46:56.076Z,100050.16
2018-09-05T14:49:59.008Z,100049.52
2018-09-05T14:53:01.996Z,100043.76
2018-09-05T14:56:04.936Z,100045.01
2018-09-05T14:59:07.830Z,100040.66
2018-09-05T15:02:10.732Z,100035.42
2018-09-05T15:05:13.621Z,100036.05
2018-09-05T15:08:16.620Z,100038.77
2018-09-05T15:11:19.676Z,100032.44
2018-09-05T15:14:22.732Z,100037.00
2018-09-05T15:17:25.686Z,100026.80
2018-09-05T15:20:28.552Z,100024.26
2018-09-05T15:23:31.599Z,100020.31
2018-09-05T15:26:34.480Z,100016.03
2018-09-05T15:29:37.361Z,100019.13
2018-09-05T15:32:40.265Z,100003.37
2018-09-05T15:35:43.321Z,100014.48
2018-09-05T15:38:46.693Z,100015.67
2018-09-05T15:41:49.564Z,100008.73
2018-09-05T15:44:52.545Z,99995.75
2018-09-05T15:47:55.591Z,99995.01
2018-09-05T15:51:00.094Z,99989.28
2018-09-05T15:54:03.234Z,99990.61
2018-09-05T15:57:06.608Z,99993.11
2018-09-05T16:00:09.598Z,99997.45
2018-09-05T16:03:12.571Z,99999.20
2018-09-05T16:06:15.594Z,99980.47
2018-09-05T16:09:18.563Z,99982.84
2018-09-05T16:12:21.485Z,99984.23
2018-09-05T16:15:24.552Z,99986.10
2018-09-05T16:18:27.414Z,99982.69
2018-09-05T16:21:30.338Z,99980.09
2018-09-05T16:24:34.094Z,99975.05
2018-09-05T16:27:36.989Z,99973.02
2018-09-05T16:30:39.925Z,99973.20
2018-09-05T16:33:42.918Z,99973.63
2018-09-05T16:36:45.833Z,99980.50
2018-09-05T16:39:49.410Z,99971.88
2018-09-05T16:42:52.333Z,99977.08
2018-09-05T16:45:55.330Z,99978.59
2018-09-05T16:48:58.260Z,99974.99
2018-09-05T16:52:01.473Z,99974.28
2018-09-05T16:55:04.830Z,99972.30
2018-09-05T16:58:07.789Z,99978.72
2018-09-05T17:01:10.748Z,99972.20
2018-09-05T17:04:13.647Z,99971.14
2018-09-05T17:07:16.687Z,99976.31
2018-09-05T17:10:19.818Z,99981.39
2018-09-05T17:13:22.844Z,99981.52
2018-09-05T17:16:25.754Z,99987.03
2018-09-05T17:19:28.751Z,99984.48
2018-09-05T17:22:31.657Z,99978.36
2018-09-05T17:25:34.550Z,99987.34
2018-09-05T17:28:37.725Z,99986.48
2018-09-05T17:31:40.680Z,99984.66
2018-09-05T17:34:43.697Z,99988.56
2018-09-05T17:37:46.589Z,99994.84
2018-09-05T17:40:49.524Z,99996.72
2018-09-05T17:43:52.714Z,100000.52
2018-09-05T17:46:55.629Z,99996.30
2018-09-05T17:49:58.531Z,100007.34
2018-09-05T17:53:01.654Z,100005.36
2018-09-05T17:56:04.683Z,100006.46
2018-09-05T17:59:07.599Z,100007.81
2018-09-05T18:02:10.520Z,100009.42
2018-09-05T18:05:13.493Z,100002.77
2018-09-05T18:08:16.468Z,100008.90
2018-09-05T18:11:19.407Z,100004.09
2018-09-05T18:14:22.432Z,100010.44
2018-09-05T18:17:25.465Z,100002.94
2018-09-05T18:20:28.802Z,99980.88
2018-09-05T18:23:31.860Z,100002.34
2018-09-05T18:26:34.833Z,100004.07
2018-09-05T18:29:37.791Z,100004.92
2018-09-05T18:32:40.844Z,100009.91
2018-09-05T18:35:43.796Z,100010.95
2018-09-05T18:38:47.415Z,100010.31
2018-09-05T18:41:50.510Z,100016.02
2018-09-05T18:44:53.543Z,100017.13
2018-09-05T18:47:56.587Z,100017.52
2018-09-05T18:50:59.527Z,100014.30
2018-09-05T18:54:02.549Z,100015.81
2018-09-05T18:57:05.715Z,100011.87
2018-09-05T19:00:08.798Z,100011.97
2018-09-05T19:03:11.754Z,100011.11
2018-09-05T19:06:14.814Z,100014.39
2018-09-05T19:09:18.604Z,100010.80
2018-09-05T19:12:21.676Z,100011.92
2018-09-05T19:15:25.012Z,100006.19
2018-09-05T19:18:29.036Z,100002.97
2018-09-05T19:21:32.838Z,100004.28
2018-09-05T19:24:36.141Z,100000.02
2018-09-05T19:27:39.680Z,100001.93
2018-09-05T19:30:42.889Z,99997.44
2018-09-05T19:33:47.530Z,99993.06
2018-09-05T19:36:50.591Z,99988.78
2018-09-05T19:39:53.636Z,99995.23
2018-09-05T19:42:56.523Z,99991.14
2018-09-05T19:45:59.448Z,99992.92
2018-09-05T19:49:02.354Z,99993.50
2018-09-05T19:52:05.344Z,99995.23
2018-09-05T19:55:08.394Z,99988.75
2018-09-05T19:58:11.274Z,99990.95
2018-09-05T20:01:16.274Z,99988.77
2018-09-05T20:04:20.233Z,99987.28
2018-09-05T20:07:24.115Z,99990.89
2018-09-05T20:10:29.520Z,99988.09
2018-09-05T20:13:34.334Z,99985.36
2018-09-05T20:16:37.819Z,99990.46
2018-09-05T20:19:40.977Z,99990.09
2018-09-05T20:22:44.056Z,99993.56
2018-09-05T20:25:48.412Z,99993.13
2018-09-05T20:28:51.416Z,99990.94
2018-09-05T20:31:54.522Z,99990.43
2018-09-05T20:34:57.645Z,99991.94
2018-09-05T20:38:00.882Z,99989.30
2018-09-05T20:41:04.149Z,99986.30
2018-09-05T20:44:07.832Z,99989.95
2018-09-05T20:47:12.747Z,99982.34
2018-09-05T20:50:15.744Z,99979.84
2018-09-05T20:53:21.207Z,99981.73
2018-09-05T20:56:24.929Z,99984.53
2018-09-05T20:59:28.413Z,99983.34
2018-09-05T21:02:31.678Z,99985.97
2018-09-05T21:05:36.318Z,99988.11
2018-09-05T21:08:45.982Z,99984.83
2018-09-05T21:11:50.815Z,99986.84
2018-09-05T21:14:59.180Z,99988.86
2018-09-05T21:18:03.049Z,99984.05
2018-09-05T21:21:11.205Z,99990.55
2018-09-05T21:24:15.226Z,99980.66
2018-09-05T21:27:18.430Z,99982.32
2018-09-05T21:30:21.462Z,99977.43
2018-09-05T21:33:25.714Z,99975.12
2018-09-05T21:36:28.704Z,99972.35
2018-09-05T21:39:31.716Z,99973.45
2018-09-05T21:42:34.641Z,99965.52
2018-09-05T21:45:37.791Z,99970.42
2018-09-05T21:48:40.780Z,99961.32
2018-09-05T21:51:43.913Z,99961.45
2018-09-05T21:54:46.910Z,99960.77
2018-09-05T21:57:49.929Z,99960.55
2018-09-05T22:00:52.977Z,99958.66
2018-09-05T22:03:56.024Z,99960.14
2018-09-05T22:06:59.477Z,99962.98
2018-09-05T22:10:03.838Z,99964.20
2018-09-05T22:13:09.057Z,99957.33
2018-09-05T22:16:12.018Z,99956.91
2018-09-05T22:19:15.203Z,99951.05
2018-09-05T22:22:18.169Z,99947.77
2018-09-05T22:28:24.541Z,99944.55
2018-09-05T22:31:27.589Z,99940.13
2018-09-05T22:34:30.569Z,99946.56
2018-09-05T22:37:33.629Z,99943.69
2018-09-05T22:40:42.203Z,99945.61
2018-09-05T22:44:02.462Z,99945.84
2018-09-05T22:47:23.843Z,99946.02
2018-09-05T22:51:15.581Z,99943.46
2018-09-05T22:55:57.900Z,99940.70
2018-09-05T22:59:23.493Z,99934.58
2018-09-05T23:03:13.434Z,99935.39
2018-09-05T23:06:31.425Z,99929.45
2018-09-05T23:09:51.953Z,99923.48
2018-09-05T23:13:12.269Z,99926.69
2018-09-05T23:17:36.120Z,99920.58
2018-09-05T23:21:01.072Z,99915.70
2018-09-05T23:24:10.645Z,99916.02
2018-09-05T23:27:13.609Z,99912.72
2018-09-05T23:30:16.591Z,99908.28
2018-09-05T23:33:19.594Z,99901.39
2018-09-05T23:37:34.546Z,99901.39
2018-09-05T23:47:38.996Z,99901.39
